createdAt,value
2019-05-29T00:01:16.181Z,55.80
2019-05-29T00:03:40.844Z,56.10
2019-05-29T00:06:10.248Z,56.40
2019-05-29T00:08:39.393Z,56.40
2019-05-29T00:11:08.532Z,56.50
2019-05-29T00:13:37.445Z,57.20
2019-05-29T00:16:06.403Z,57.10
2019-05-29T00:18:35.442Z,56.80
2019-05-29T00:21:04.483Z,56.70
2019-05-29T00:23:33.315Z,56.80
2019-05-29T00:26:02.540Z,56.90
2019-05-29T00:28:31.436Z,57.60
2019-05-29T00:31:00.364Z,57.10
2019-05-29T00:33:29.217Z,57.10
2019-05-29T00:35:58.007Z,57.80
2019-05-29T00:38:27.046Z,57.10
2019-05-29T00:40:55.942Z,57.30
2019-05-29T00:43:24.819Z,57.80
2019-05-29T00:45:53.880Z,57.30
2019-05-29T00:48:23.004Z,57.30
2019-05-29T00:50:51.825Z,57.20
2019-05-29T00:53:20.816Z,57.30
2019-05-29T00:55:49.876Z,57.40
2019-05-29T00:58:19.784Z,57.50
2019-05-29T01:00:48.847Z,58.70
2019-05-29T01:03:17.969Z,57.70
2019-05-29T01:05:47.075Z,57.90
2019-05-29T01:08:16.428Z,58.00
2019-05-29T01:10:45.479Z,58.10
2019-05-29T01:13:15.166Z,58.00
2019-05-29T01:15:44.227Z,58.50
2019-05-29T01:18:13.811Z,58.50
2019-05-29T01:23:12.131Z,58.30
2019-05-29T01:25:41.102Z,58.50
2019-05-29T01:28:10.112Z,59.00
2019-05-29T01:30:39.092Z,58.50
2019-05-29T01:33:08.292Z,58.50
2019-05-29T01:35:37.160Z,58.60
2019-05-29T01:38:06.201Z,59.50
2019-05-29T01:40:35.143Z,58.90
2019-05-29T01:43:04.197Z,59.30
2019-05-29T01:45:33.073Z,58.80
2019-05-29T01:48:02.104Z,59.20
2019-05-29T01:50:31.067Z,59.20
2019-05-29T01:53:00.004Z,59.30
2019-05-29T01:55:29.064Z,59.40
2019-05-29T01:57:58.155Z,59.50
2019-05-29T02:00:28.353Z,60.20
2019-05-29T02:02:57.585Z,59.80
2019-05-29T02:05:26.500Z,59.80
2019-05-29T02:07:55.500Z,60.30
2019-05-29T02:10:24.444Z,59.70
2019-05-29T02:12:53.413Z,59.50
2019-05-29T02:15:30.176Z,59.50
2019-05-29T02:17:52.930Z,60.10
2019-05-29T02:20:23.070Z,60.10
2019-05-29T02:22:52.384Z,59.50
2019-05-29T02:25:22.332Z,59.70
2019-05-29T02:27:51.500Z,61.00
2019-05-29T02:30:22.806Z,59.80
2019-05-29T02:32:51.052Z,60.20
2019-05-29T02:35:20.368Z,60.00
2019-05-29T02:37:50.877Z,60.20
2019-05-29T02:40:21.331Z,60.30
2019-05-29T02:42:50.695Z,61.10
2019-05-29T02:47:49.053Z,60.70
2019-05-29T02:50:19.708Z,60.80
2019-05-29T02:52:48.551Z,61.30
2019-05-29T02:55:17.477Z,61.60
2019-05-29T02:57:46.328Z,61.40
2019-05-29T03:00:15.403Z,61.40
2019-05-29T03:02:44.257Z,61.40
2019-05-29T03:05:13.149Z,62.70
2019-05-29T03:07:42.028Z,61.80
2019-05-29T03:10:11.086Z,62.40
2019-05-29T03:12:40.095Z,62.50
2019-05-29T03:15:09.633Z,64.10
2019-05-29T03:17:38.605Z,62.80
2019-05-29T03:22:36.392Z,62.80
2019-05-29T03:25:08.195Z,63.10
2019-05-29T03:27:38.390Z,63.00
2019-05-29T03:30:08.540Z,62.70
2019-05-29T03:32:46.137Z,63.30
2019-05-29T03:35:08.078Z,63.20
2019-05-29T03:40:07.599Z,63.20
2019-05-29T03:42:36.579Z,63.10
2019-05-29T03:45:06.501Z,63.00
2019-05-29T03:47:36.999Z,63.10
2019-05-29T03:50:07.115Z,63.10
2019-05-29T03:52:36.013Z,63.80
2019-05-29T03:55:06.804Z,64.30
2019-05-29T03:57:37.359Z,63.80
2019-05-29T04:00:07.097Z,64.50
2019-05-29T04:02:37.911Z,64.40
2019-05-29T04:05:06.719Z,64.40
2019-05-29T04:07:35.713Z,65.00
2019-05-29T04:10:07.103Z,65.10
2019-05-29T04:12:37.782Z,65.90
2019-05-29T04:15:06.798Z,65.90
2019-05-29T04:20:05.666Z,65.90
2019-05-29T04:22:43.750Z,65.30
2019-05-29T04:25:13.625Z,66.20
2019-05-29T04:27:45.519Z,66.60
2019-05-29T04:30:16.649Z,65.70
2019-05-29T04:32:45.560Z,66.00
2019-05-29T04:35:14.678Z,65.70
2019-05-29T04:37:43.625Z,65.70
2019-05-29T04:40:12.945Z,66.00
2019-05-29T04:42:41.879Z,66.40
2019-05-29T04:45:10.737Z,66.00
2019-05-29T04:47:39.937Z,66.30
2019-05-29T04:50:09.561Z,66.00
2019-05-29T04:52:41.622Z,65.40
2019-05-29T04:55:10.522Z,66.50
2019-05-29T04:57:39.575Z,66.50
2019-05-29T05:00:08.749Z,67.00
2019-05-29T05:05:06.600Z,66.40
2019-05-29T05:07:35.651Z,66.80
2019-05-29T05:10:05.357Z,66.60
2019-05-29T05:12:35.666Z,66.00
2019-05-29T05:15:05.443Z,66.00
2019-05-29T05:17:34.405Z,66.10
2019-05-29T05:20:03.457Z,66.20
2019-05-29T05:22:34.184Z,66.50
2019-05-29T05:25:11.561Z,66.20
2019-05-29T05:27:40.742Z,65.80
2019-05-29T05:30:09.593Z,66.20
2019-05-29T05:32:38.906Z,65.30
2019-05-29T05:35:08.267Z,66.00
2019-05-29T05:37:37.223Z,66.20
2019-05-29T05:40:07.376Z,65.40
2019-05-29T05:42:37.143Z,65.80
2019-05-29T05:45:07.918Z,65.30
2019-05-29T05:47:51.034Z,64.90
2019-05-29T05:50:07.898Z,65.00
2019-05-29T05:52:39.944Z,65.30
2019-05-29T05:55:08.917Z,64.70
2019-05-29T05:57:37.828Z,64.60
2019-05-29T06:00:08.807Z,64.60
2019-05-29T06:02:38.240Z,65.00
2019-05-29T06:05:07.363Z,64.20
2019-05-29T06:07:36.408Z,64.60
2019-05-29T06:10:06.828Z,63.60
2019-05-29T06:12:36.552Z,63.40
2019-05-29T06:15:06.965Z,63.10
2019-05-29T06:17:36.618Z,64.10
2019-05-29T06:20:09.524Z,62.50
2019-05-29T06:22:39.119Z,63.30
2019-05-29T06:25:40.265Z,62.50
2019-05-29T06:28:08.487Z,62.20
2019-05-29T06:30:40.882Z,62.20
2019-05-29T06:33:08.835Z,62.10
2019-05-29T06:35:38.041Z,62.00
2019-05-29T06:38:07.115Z,61.90
2019-05-29T06:40:44.132Z,62.10
2019-05-29T06:43:23.540Z,62.20
2019-05-29T06:45:53.228Z,61.60
2019-05-29T06:48:58.917Z,62.00
2019-05-29T06:51:00.225Z,61.10
2019-05-29T06:53:29.080Z,61.20
2019-05-29T06:55:59.292Z,60.90
2019-05-29T06:58:28.822Z,60.40
2019-05-29T07:00:57.824Z,60.60
2019-05-29T07:03:26.739Z,60.40
2019-05-29T07:05:55.584Z,60.50
2019-05-29T07:08:38.173Z,60.30
2019-05-29T07:10:55.666Z,59.60
2019-05-29T07:13:24.525Z,60.00
2019-05-29T07:15:53.497Z,59.40
2019-05-29T07:18:22.428Z,58.90
2019-05-29T07:23:20.231Z,58.50
2019-05-29T07:25:49.156Z,58.50
2019-05-29T07:28:25.953Z,58.40
2019-05-29T07:31:01.544Z,57.80
2019-05-29T07:33:25.610Z,57.20
2019-05-29T07:35:54.993Z,57.00
2019-05-29T07:38:24.012Z,57.00
2019-05-29T07:40:53.236Z,57.30
2019-05-29T07:43:22.133Z,56.80
2019-05-29T07:45:54.032Z,57.30
2019-05-29T07:48:23.048Z,55.30
2019-05-29T07:51:06.296Z,55.40
2019-05-29T07:53:22.789Z,54.70
2019-05-29T07:55:51.744Z,54.10
2019-05-29T07:58:20.694Z,52.80
2019-05-29T08:01:09.982Z,52.80
2019-05-29T08:03:20.311Z,52.30
2019-05-29T08:05:51.449Z,52.90
2019-05-29T08:08:20.031Z,51.80
2019-05-29T08:10:49.761Z,53.40
2019-05-29T08:13:18.975Z,52.50
2019-05-29T08:16:01.577Z,53.00
2019-05-29T08:18:20.229Z,51.60
2019-05-29T08:20:50.253Z,52.20
2019-05-29T08:23:19.460Z,52.60
2019-05-29T08:25:49.650Z,52.20
2019-05-29T08:28:18.692Z,51.80
2019-05-29T08:30:52.587Z,51.50
2019-05-29T08:33:18.140Z,51.10
2019-05-29T08:35:50.381Z,50.70
2019-05-29T08:38:17.988Z,50.10
2019-05-29T08:40:47.409Z,50.60
2019-05-29T08:43:16.771Z,48.40
2019-05-29T08:45:45.875Z,48.70
2019-05-29T08:48:14.886Z,47.80
2019-05-29T08:50:44.009Z,47.10
2019-05-29T08:53:12.845Z,47.30
2019-05-29T08:55:42.060Z,49.00
2019-05-29T08:58:11.024Z,47.50
2019-05-29T09:00:46.460Z,47.90
2019-05-29T09:03:11.765Z,48.60
2019-05-29T09:05:40.764Z,47.80
2019-05-29T09:08:09.939Z,44.30
2019-05-29T09:10:39.015Z,46.90
2019-05-29T09:13:08.207Z,47.60
2019-05-29T09:15:37.075Z,48.40
2019-05-29T09:18:06.316Z,47.70
2019-05-29T09:21:00.035Z,47.70
2019-05-29T09:23:12.632Z,47.30
2019-05-29T09:25:42.133Z,45.40
2019-05-29T09:28:16.642Z,43.20
2019-05-29T09:30:46.585Z,41.10
2019-05-29T09:33:17.891Z,43.30
2019-05-29T09:35:46.180Z,41.10
2019-05-29T09:38:15.718Z,40.30
2019-05-29T09:40:45.571Z,39.70
2019-05-29T09:43:16.165Z,40.50
2019-05-29T09:45:45.332Z,40.00
2019-05-29T09:48:20.146Z,38.80
2019-05-29T09:50:50.183Z,39.40
2019-05-29T09:53:15.597Z,38.10
2019-05-29T09:55:44.509Z,37.50
2019-05-29T09:58:13.609Z,36.40
2019-05-29T10:00:42.396Z,35.70
2019-05-29T10:03:11.494Z,36.00
2019-05-29T10:05:40.619Z,35.80
2019-05-29T10:08:10.136Z,36.10
2019-05-29T10:10:39.249Z,36.30
2019-05-29T10:13:08.295Z,33.90
2019-05-29T10:15:37.373Z,35.10
2019-05-29T10:18:10.012Z,35.20
2019-05-29T10:20:36.831Z,33.70
2019-05-29T10:23:05.693Z,33.80
2019-05-29T10:25:35.137Z,32.30
2019-05-29T10:28:06.100Z,33.20
2019-05-29T10:30:34.829Z,31.80
2019-05-29T10:33:03.959Z,32.60
2019-05-29T10:35:33.009Z,32.00
2019-05-29T10:38:01.997Z,31.00
2019-05-29T10:40:31.124Z,30.40
2019-05-29T10:43:00.325Z,30.00
2019-05-29T10:45:29.327Z,30.80
2019-05-29T10:47:58.297Z,30.30
2019-05-29T10:50:27.231Z,30.10
2019-05-29T10:52:56.400Z,30.90
2019-05-29T10:55:25.467Z,29.40
2019-05-29T10:57:55.210Z,28.80
2019-05-29T11:00:24.403Z,29.50
2019-05-29T11:02:55.802Z,28.70
2019-05-29T11:05:24.370Z,28.50
2019-05-29T11:07:53.939Z,28.10
2019-05-29T11:10:23.136Z,28.30
2019-05-29T11:12:52.649Z,27.60
2019-05-29T11:15:22.200Z,28.40
2019-05-29T11:17:57.444Z,27.60
2019-05-29T11:20:27.869Z,27.30
2019-05-29T11:22:59.461Z,28.80
2019-05-29T11:25:28.841Z,28.20
2019-05-29T11:27:58.672Z,27.90
2019-05-29T11:30:27.816Z,27.90
2019-05-29T11:32:57.576Z,26.70
2019-05-29T11:35:27.351Z,26.00
2019-05-29T11:37:56.659Z,26.60
2019-05-29T11:40:25.467Z,27.00
2019-05-29T11:42:54.802Z,27.30
2019-05-29T11:45:23.898Z,28.20
2019-05-29T11:47:53.998Z,27.40
2019-05-29T11:50:23.684Z,27.20
2019-05-29T11:52:52.702Z,26.80
2019-05-29T11:55:21.856Z,26.90
2019-05-29T11:57:51.829Z,27.60
2019-05-29T12:00:21.520Z,27.40
2019-05-29T12:02:51.503Z,27.60
2019-05-29T12:05:20.622Z,27.70
2019-05-29T12:07:49.608Z,27.10
2019-05-29T12:10:19.063Z,27.20
2019-05-29T12:12:48.181Z,26.70
2019-05-29T12:15:18.808Z,26.90
2019-05-29T12:17:48.065Z,26.70
2019-05-29T12:20:27.622Z,26.60
2019-05-29T12:23:11.385Z,27.40
2019-05-29T12:25:18.285Z,26.80
2019-05-29T12:27:47.487Z,26.00
2019-05-29T12:30:16.991Z,26.30
2019-05-29T12:32:45.897Z,27.10
2019-05-29T12:35:15.012Z,26.60
2019-05-29T12:37:44.021Z,26.70
2019-05-29T12:40:13.248Z,26.60
2019-05-29T12:42:44.891Z,26.70
2019-05-29T12:45:14.197Z,25.80
2019-05-29T12:47:43.320Z,26.40
2019-05-29T12:50:13.057Z,26.30
2019-05-29T12:52:42.294Z,26.50
2019-05-29T12:55:12.726Z,26.60
2019-05-29T12:57:41.738Z,26.70
2019-05-29T13:00:15.136Z,26.00
2019-05-29T13:02:44.142Z,25.60
2019-05-29T13:05:19.764Z,26.40
2019-05-29T13:07:43.850Z,26.00
2019-05-29T13:10:29.452Z,25.40
2019-05-29T13:12:43.779Z,25.00
2019-05-29T13:15:13.920Z,24.60
2019-05-29T13:17:42.742Z,25.60
2019-05-29T13:20:20.951Z,26.10
2019-05-29T13:22:43.104Z,26.90
2019-05-29T13:25:13.429Z,26.70
2019-05-29T13:27:42.600Z,26.70
2019-05-29T13:30:12.482Z,26.20
2019-05-29T13:32:41.448Z,25.90
2019-05-29T13:35:11.940Z,25.60
2019-05-29T13:37:40.960Z,25.20
2019-05-29T13:40:09.993Z,26.10
2019-05-29T13:42:39.083Z,25.40
2019-05-29T13:45:17.656Z,24.40
2019-05-29T13:47:41.125Z,24.70
2019-05-29T13:50:12.515Z,24.30
2019-05-29T13:52:41.093Z,24.00
2019-05-29T13:55:10.191Z,24.40
2019-05-29T13:57:40.211Z,24.80
2019-05-29T14:00:30.367Z,25.30
2019-05-29T14:02:42.470Z,25.60
2019-05-29T14:05:11.412Z,26.00
2019-05-29T14:07:40.532Z,26.20
2019-05-29T14:10:09.734Z,26.80
2019-05-29T14:12:41.544Z,27.20
2019-05-29T14:15:12.066Z,26.70
2019-05-29T14:17:41.428Z,27.30
2019-05-29T14:20:10.662Z,27.10
2019-05-29T14:22:39.816Z,26.80
2019-05-29T14:25:09.478Z,26.70
2019-05-29T14:27:38.526Z,26.00
2019-05-29T14:30:11.137Z,25.50
2019-05-29T14:32:40.344Z,26.00
2019-05-29T14:35:11.139Z,25.90
2019-05-29T14:37:40.712Z,25.20
2019-05-29T14:40:09.944Z,25.90
2019-05-29T14:42:38.912Z,25.60
2019-05-29T14:47:42.924Z,26.10
2019-05-29T14:50:13.711Z,25.70
2019-05-29T14:52:43.075Z,26.60
2019-05-29T14:55:17.440Z,26.70
2019-05-29T14:57:42.702Z,27.00
2019-05-29T15:00:24.434Z,27.30
2019-05-29T15:02:43.717Z,27.50
2019-05-29T15:05:15.051Z,27.60
2019-05-29T15:07:44.083Z,27.50
2019-05-29T15:10:25.167Z,27.50
2019-05-29T15:12:43.685Z,28.30
2019-05-29T15:15:16.240Z,27.90
2019-05-29T15:17:43.291Z,27.70
2019-05-29T15:20:12.957Z,27.60
2019-05-29T15:22:42.599Z,28.30
2019-05-29T15:25:19.911Z,27.90
2019-05-29T15:27:42.070Z,28.50
2019-05-29T15:30:13.765Z,28.10
2019-05-29T15:32:41.749Z,27.60
2019-05-29T15:35:14.863Z,27.00
2019-05-29T15:37:42.571Z,27.30
2019-05-29T15:40:12.735Z,26.60
2019-05-29T15:42:41.965Z,26.60
2019-05-29T15:45:13.845Z,27.00
2019-05-29T15:47:43.103Z,26.80
2019-05-29T15:50:13.417Z,27.10
2019-05-29T15:52:43.014Z,26.80
2019-05-29T15:55:27.102Z,27.00
2019-05-29T15:57:42.811Z,27.10
2019-05-29T16:00:13.571Z,27.00
2019-05-29T16:02:42.777Z,27.90
2019-05-29T16:05:12.966Z,27.40
2019-05-29T16:07:42.269Z,27.40
2019-05-29T16:10:15.240Z,27.90
2019-05-29T16:12:43.363Z,28.00
2019-05-29T16:15:13.262Z,27.10
2019-05-29T16:17:42.240Z,27.80
2019-05-29T16:20:12.371Z,28.10
2019-05-29T16:22:41.476Z,27.70
2019-05-29T16:25:10.775Z,27.30
2019-05-29T16:27:40.019Z,26.90
2019-05-29T16:30:09.291Z,27.70
2019-05-29T16:32:38.355Z,27.30
2019-05-29T16:35:07.570Z,27.50
2019-05-29T16:37:36.552Z,26.90
2019-05-29T16:40:09.909Z,26.60
2019-05-29T16:42:39.061Z,26.50
2019-05-29T16:45:09.123Z,27.20
2019-05-29T16:47:38.149Z,26.90
2019-05-29T16:50:10.148Z,27.00
2019-05-29T16:52:39.156Z,26.50
2019-05-29T16:55:08.168Z,27.10
2019-05-29T16:57:37.122Z,27.30
2019-05-29T17:00:08.366Z,27.10
2019-05-29T17:02:37.608Z,27.00
2019-05-29T17:05:07.013Z,27.10
2019-05-29T17:07:35.964Z,26.80
2019-05-29T17:10:06.972Z,28.30
2019-05-29T17:12:36.174Z,27.20
2019-05-29T17:15:10.109Z,27.10
2019-05-29T17:17:39.240Z,27.50
2019-05-29T17:20:09.768Z,27.50
2019-05-29T17:22:39.629Z,27.70
2019-05-29T17:25:08.809Z,27.60
2019-05-29T17:27:37.893Z,28.40
2019-05-29T17:30:08.250Z,28.50
2019-05-29T17:32:37.661Z,28.20
2019-05-29T17:35:07.500Z,28.40
2019-05-29T17:37:36.682Z,28.80
2019-05-29T17:40:07.947Z,28.00
2019-05-29T17:42:36.710Z,28.40
2019-05-29T17:45:10.572Z,27.80
2019-05-29T17:47:39.507Z,28.10
2019-05-29T17:50:08.804Z,28.60
2019-05-29T17:52:38.169Z,28.80
2019-05-29T17:55:10.082Z,28.40
2019-05-29T17:57:39.240Z,28.30
2019-05-29T18:00:12.249Z,28.30
2019-05-29T18:02:51.380Z,28.50
2019-05-29T18:05:13.115Z,29.20
2019-05-29T18:07:42.796Z,29.60
2019-05-29T18:10:14.150Z,29.50
2019-05-29T18:12:48.182Z,29.60
2019-05-29T18:15:21.647Z,30.20
2019-05-29T18:17:54.297Z,30.40
2019-05-29T18:20:23.962Z,30.40
2019-05-29T18:22:57.995Z,30.10
2019-05-29T18:25:29.945Z,30.40
2019-05-29T18:28:05.984Z,30.40
2019-05-29T18:30:37.980Z,30.20
2019-05-29T18:33:10.693Z,30.40
2019-05-29T18:35:41.215Z,30.30
2019-05-29T18:38:10.393Z,30.90
2019-05-29T18:40:39.959Z,31.90
2019-05-29T18:43:10.124Z,31.30
2019-05-29T18:45:42.439Z,32.20
2019-05-29T18:48:16.126Z,32.60
2019-05-29T18:50:50.968Z,32.60
2019-05-29T18:53:24.775Z,32.50
2019-05-29T18:56:01.719Z,32.60
2019-05-29T18:58:37.964Z,33.70
2019-05-29T19:01:16.459Z,34.20
2019-05-29T19:03:58.583Z,33.70
2019-05-29T19:06:37.672Z,34.60
2019-05-29T19:09:23.519Z,35.00
2019-05-29T19:12:03.043Z,35.00
2019-05-29T19:14:37.640Z,35.10
2019-05-29T19:17:14.373Z,35.90
2019-05-29T19:19:48.472Z,35.70
2019-05-29T19:22:24.371Z,35.90
2019-05-29T19:25:01.607Z,36.70
2019-05-29T19:27:41.814Z,36.30
2019-05-29T19:30:15.425Z,36.60
2019-05-29T19:32:54.495Z,37.40
2019-05-29T19:35:29.610Z,37.50
2019-05-29T19:38:07.742Z,37.20
2019-05-29T19:40:47.371Z,37.20
2019-05-29T19:43:24.240Z,37.50
2019-05-29T19:46:02.464Z,37.90
2019-05-29T19:48:44.635Z,38.30
2019-05-29T19:51:25.137Z,38.40
2019-05-29T19:54:05.256Z,39.00
2019-05-29T19:56:48.324Z,38.90
2019-05-29T19:59:30.005Z,39.60
2019-05-29T20:02:09.232Z,39.90
2019-05-29T20:04:49.980Z,39.00
2019-05-29T20:07:35.178Z,40.90
2019-05-29T20:10:13.092Z,40.00
2019-05-29T20:12:58.383Z,39.80
2019-05-29T20:15:41.038Z,39.70
2019-05-29T20:18:22.121Z,41.50
2019-05-29T20:21:02.032Z,40.50
2019-05-29T20:23:38.806Z,41.30
2019-05-29T20:26:13.338Z,41.50
2019-05-29T20:28:49.798Z,41.50
2019-05-29T20:31:24.697Z,41.50
2019-05-29T20:34:03.804Z,42.00
2019-05-29T20:36:41.561Z,42.80
2019-05-29T20:39:18.615Z,42.30
2019-05-29T20:41:55.521Z,42.80
2019-05-29T20:44:34.596Z,42.90
2019-05-29T20:47:13.628Z,43.00
2019-05-29T20:49:52.114Z,43.80
2019-05-29T20:52:33.089Z,43.90
2019-05-29T20:55:09.361Z,43.40
2019-05-29T20:57:48.275Z,43.80
2019-05-29T21:00:26.620Z,44.30
2019-05-29T21:03:07.996Z,44.50
2019-05-29T21:05:50.298Z,44.60
2019-05-29T21:08:30.943Z,44.40
2019-05-29T21:11:10.545Z,45.80
2019-05-29T21:13:50.503Z,45.10
2019-05-29T21:16:29.725Z,44.50
2019-05-29T21:19:10.434Z,45.20
2019-05-29T21:21:53.898Z,44.80
2019-05-29T21:24:36.421Z,45.50
2019-05-29T21:27:14.408Z,46.00
2019-05-29T21:29:51.961Z,46.10
2019-05-29T21:32:26.909Z,45.70
2019-05-29T21:35:00.826Z,45.90
2019-05-29T21:37:36.648Z,46.60
2019-05-29T21:40:12.763Z,46.40
2019-05-29T21:42:48.111Z,47.10
2019-05-29T21:45:20.589Z,46.80
2019-05-29T21:47:55.151Z,48.10
2019-05-29T21:50:27.989Z,46.90
2019-05-29T21:53:01.686Z,47.60
2019-05-29T21:55:34.694Z,47.70
2019-05-29T21:58:07.746Z,48.00
2019-05-29T22:00:44.662Z,48.20
2019-05-29T22:03:15.709Z,48.20
2019-05-29T22:05:46.787Z,49.00
2019-05-29T22:08:17.535Z,48.70
2019-05-29T22:10:48.220Z,49.10
2019-05-29T22:13:18.052Z,49.70
2019-05-29T22:15:47.879Z,49.30
2019-05-29T22:18:17.210Z,49.10
2019-05-29T22:20:46.511Z,49.20
2019-05-29T22:23:15.821Z,49.60
2019-05-29T22:25:45.042Z,49.60
2019-05-29T22:28:14.355Z,50.00
2019-05-29T22:30:43.349Z,50.00
2019-05-29T22:33:12.641Z,51.20
2019-05-29T22:35:41.744Z,51.00
2019-05-29T22:38:10.828Z,51.40
2019-05-29T22:40:39.972Z,50.50
2019-05-29T22:43:09.415Z,50.70
2019-05-29T22:45:39.421Z,50.60
2019-05-29T22:48:08.705Z,50.40
2019-05-29T22:50:37.584Z,50.40
2019-05-29T22:53:06.732Z,51.10
2019-05-29T22:55:35.765Z,50.90
2019-05-29T22:58:04.832Z,50.60
2019-05-29T23:00:33.877Z,51.20
2019-05-29T23:03:03.033Z,50.40
2019-05-29T23:05:31.899Z,50.60
2019-05-29T23:08:02.408Z,50.90
2019-05-29T23:10:31.596Z,51.00
2019-05-29T23:13:03.630Z,50.30
2019-05-29T23:15:31.227Z,50.70
2019-05-29T23:18:00.684Z,50.00
2019-05-29T23:20:29.659Z,49.30
2019-05-29T23:22:58.679Z,50.20
2019-05-29T23:25:27.737Z,48.80
2019-05-29T23:27:56.984Z,48.50
2019-05-29T23:30:26.041Z,48.10
2019-05-29T23:32:55.120Z,47.80
2019-05-29T23:35:24.120Z,48.30
2019-05-29T23:37:53.193Z,47.50
2019-05-29T23:40:22.113Z,47.30
2019-05-29T23:42:51.068Z,47.20
2019-05-29T23:45:20.165Z,47.00
2019-05-29T23:47:49.172Z,47.50
2019-05-29T23:50:18.324Z,46.90
2019-05-29T23:52:47.408Z,47.40
2019-05-29T23:55:16.426Z,46.60
2019-05-29T23:57:45.379Z,46.40
